Time;durP1;ratioP1;P1;durP2;ratioP2;P2;SDS_P1;SDS_P2;PMS_P1;PMS_P2;Temp;Humidity;BMP_temperature;BMP_pressure;BME280_temperature;BME280_humidity;BME280_pressure;Samples;Min_cycle;Max_cycle;Signal;HPM_P1;HPM_P2
2022/10/23 00:01:25;;;;;;;18.48;13.68;;;;;;;9.90;100.00;100386.25;5053091;28;20029;-71
2022/10/23 00:03:52;;;;;;;21.67;14.43;;;;;;;10.28;100.00;100472.78;5051813;28;20170;-72
2022/10/23 00:06:18;;;;;;;20.02;14.32;;;;;;;10.47;100.00;100509.69;5052258;28;20029;-73
2022/10/23 00:08:46;;;;;;;20.05;15.07;;;;;;;10.76;100.00;100514.19;5052976;28;20174;-73
2022/10/23 00:11:15;;;;;;;23.02;15.07;;;;;;;10.87;100.00;100513.13;5051600;28;20415;-72
2022/10/23 00:13:41;;;;;;;25.00;15.20;;;;;;;10.35;100.00;100504.81;5053040;28;20087;-72
2022/10/23 00:16:08;;;;;;;21.80;15.60;;;;;;;9.80;100.00;100382.22;5052992;28;20033;-72
2022/10/23 00:18:34;;;;;;;22.10;15.63;;;;;;;9.93;100.00;100420.03;5052853;28;20032;-72
2022/10/23 00:21:00;;;;;;;21.98;15.93;;;;;;;10.05;100.00;100417.28;5053028;28;20041;-74
2022/10/23 00:23:25;;;;;;;22.60;15.80;;;;;;;10.11;100.00;100429.91;5052404;28;20033;-72
2022/10/23 00:25:51;;;;;;;22.48;15.23;;;;;;;10.66;100.00;100505.91;5052856;28;20033;-72
2022/10/23 00:28:17;;;;;;;23.75;16.83;;;;;;;10.33;100.00;100448.09;5052184;28;20048;-72
2022/10/23 00:30:42;;;;;;;26.85;16.50;;;;;;;10.08;100.00;100445.16;5052093;28;20060;-71
2022/10/23 00:33:09;;;;;;;30.73;20.65;;;;;;;10.57;100.00;100484.91;5052444;28;20483;-71
2022/10/23 00:35:37;;;;;;;33.92;21.30;;;;;;;10.46;100.00;100478.34;5051166;28;20029;-71
2022/10/23 00:38:03;;;;;;;34.45;22.88;;;;;;;10.45;100.00;100479.22;5052821;28;20117;-71
2022/10/23 00:40:28;;;;;;;36.33;23.35;;;;;;;10.40;100.00;100493.69;5052495;28;20112;-71
2022/10/23 00:42:54;;;;;;;37.08;23.58;;;;;;;10.29;100.00;100428.72;5052252;28;20076;-71
2022/10/23 00:45:27;;;;;;;36.65;23.20;;;;;;;10.62;100.00;100495.84;5052254;28;20040;-71
2022/10/23 00:47:54;;;;;;;36.75;23.27;;;;;;;9.88;100.00;100408.31;5050844;28;20037;-70
2022/10/23 00:50:23;;;;;;;40.55;23.40;;;;;;;10.00;100.00;100431.75;5050750;28;20513;-71
2022/10/23 00:52:51;;;;;;;36.35;23.55;;;;;;;10.02;100.00;100435.09;5052015;28;20029;-72
2022/10/23 00:55:19;;;;;;;41.78;24.08;;;;;;;10.14;100.00;100432.38;5051816;28;20495;-71
2022/10/23 00:57:47;;;;;;;33.47;22.92;;;;;;;9.86;100.00;100428.66;5052287;28;20031;-71
2022/10/23 01:00:17;;;;;;;40.78;25.08;;;;;;;9.90;100.00;100426.88;5050800;28;20025;-71
2022/10/23 01:02:42;;;;;;;42.75;25.63;;;;;;;10.12;100.00;100469.66;5051702;28;20025;-71
2022/10/23 01:05:08;;;;;;;40.30;26.25;;;;;;;9.89;100.00;100432.81;5050586;28;20381;-71
2022/10/23 01:07:48;;;;;;;38.05;25.13;;;;;;;9.78;100.00;100416.94;5051831;28;20120;-72
2022/10/23 01:10:33;;;;;;;37.95;25.92;;;;;;;9.97;100.00;100461.44;5051592;28;20032;-71
2022/10/23 01:13:13;;;;;;;43.45;27.50;;;;;;;9.88;100.00;100437.06;5051905;28;20048;-70
2022/10/23 01:15:43;;;;;;;42.75;25.13;;;;;;;10.34;100.00;100496.34;5051496;28;20025;-71
2022/10/23 01:18:38;;;;;;;39.92;25.52;;;;;;;10.33;100.00;100487.06;5051422;28;20047;-71
2022/10/23 01:21:13;;;;;;;45.70;25.70;;;;;;;9.84;100.00;100427.00;5051502;28;20523;-71
2022/10/23 01:24:11;;;;;;;41.90;25.38;;;;;;;9.89;100.00;100473.44;5051303;28;20025;-71
2022/10/23 01:27:03;;;;;;;40.33;24.05;;;;;;;10.35;100.00;100466.72;5006167;28;20040;-71
2022/10/23 01:29:40;;;;;;;41.10;24.42;;;;;;;10.37;100.00;100472.59;5041351;28;20053;-71
2022/10/23 01:32:20;;;;;;;41.72;26.20;;;;;;;10.06;100.00;100457.03;5051499;28;20036;-72
2022/10/23 01:34:58;;;;;;;39.38;25.70;;;;;;;9.92;100.00;100408.22;5049852;28;20043;-71
2022/10/23 01:37:31;;;;;;;43.72;27.58;;;;;;;10.13;100.00;100445.94;5051509;28;20036;-71
2022/10/23 01:40:01;;;;;;;40.53;26.48;;;;;;;10.15;100.00;100467.09;5050842;28;20112;-70
2022/10/23 01:42:32;;;;;;;40.80;25.63;;;;;;;9.65;100.00;100412.97;5051024;28;20025;-71
2022/10/23 01:45:11;;;;;;;39.78;25.17;;;;;;;10.01;100.00;100423.28;5050095;28;20381;-71
2022/10/23 01:47:38;;;;;;;38.63;23.90;;;;;;;9.93;100.00;100414.13;5051031;28;20032;-71
2022/10/23 01:50:06;;;;;;;37.10;22.80;;;;;;;10.02;100.00;100439.38;5049586;28;20036;-71
2022/10/23 01:52:32;;;;;;;28.20;19.75;;;;;;;9.69;100.00;100435.69;5051426;28;20060;-71
2022/10/23 01:55:00;;;;;;;30.20;20.90;;;;;;;10.23;100.00;100497.44;5049747;28;20069;-72
2022/10/23 01:57:29;;;;;;;34.40;22.75;;;;;;;10.17;100.00;100472.13;5050792;28;20044;-71
2022/10/23 02:00:08;;;;;;;34.88;22.17;;;;;;;9.69;100.00;100420.47;5050538;28;20036;-71
2022/10/23 02:02:36;;;;;;;31.83;22.52;;;;;;;9.77;100.00;100433.88;5050904;28;20115;-71
2022/10/23 02:05:05;;;;;;;33.38;23.10;;;;;;;9.47;100.00;100409.84;5049333;28;20029;-71
2022/10/23 02:07:30;;;;;;;38.85;23.75;;;;;;;9.41;100.00;100391.34;5049365;28;20485;-70
2022/10/23 02:09:56;;;;;;;36.90;25.15;;;;;;;9.79;100.00;100480.38;5050679;28;20123;-70
2022/10/23 02:12:40;;;;;;;33.78;25.23;;;;;;;9.99;100.00;100474.97;5050150;28;20456;-71
2022/10/23 02:15:24;;;;;;;37.75;25.60;;;;;;;9.97;100.00;100477.53;5050499;28;20121;-71
2022/10/23 02:18:13;;;;;;;37.05;24.00;;;;;;;9.63;100.00;100428.19;5049179;28;20040;-71
2022/10/23 02:20:45;;;;;;;36.42;25.02;;;;;;;9.87;100.00;100482.78;5012302;28;20053;-71
2022/10/23 02:23:30;;;;;;;35.80;25.02;;;;;;;9.98;100.00;100494.44;5050374;28;20032;-71
2022/10/23 02:26:06;;;;;;;39.30;24.92;;;;;;;9.67;100.00;100461.97;5050820;28;20113;-72
2022/10/23 02:28:48;;;;;;;37.28;25.02;;;;;;;9.47;100.00;100379.41;5050774;28;20025;-71
2022/10/23 02:31:17;;;;;;;40.33;26.17;;;;;;;10.01;100.00;100498.63;5044675;28;20033;-71
2022/10/23 02:33:45;;;;;;;44.05;26.02;;;;;;;10.07;100.00;100479.06;5050306;28;20037;-73
2022/10/23 02:36:11;;;;;;;35.88;25.77;;;;;;;9.46;100.00;100379.44;5050217;28;20028;-72
2022/10/23 02:38:40;;;;;;;36.78;25.63;;;;;;;10.09;100.00;100484.09;5050382;28;20442;-72
2022/10/23 02:41:20;;;;;;;40.00;25.70;;;;;;;10.15;100.00;100489.09;5050585;28;20035;-70
2022/10/23 02:43:57;;;;;;;37.97;26.13;;;;;;;10.27;100.00;100496.50;5049551;28;20919;-70
2022/10/23 02:46:29;;;;;;;41.90;25.73;;;;;;;10.07;100.00;100486.66;5050220;28;20025;-72
2022/10/23 02:49:08;;;;;;;37.85;25.17;;;;;;;9.85;100.00;100444.72;5049951;28;20052;-73
2022/10/23 02:52:03;;;;;;;40.03;25.58;;;;;;;9.88;100.00;100470.09;5049340;28;20561;-72
2022/10/23 02:54:42;;;;;;;39.83;26.25;;;;;;;9.75;100.00;100453.38;5050557;28;20553;-73
2022/10/23 02:57:28;;;;;;;34.85;25.00;;;;;;;10.16;100.00;100499.22;5049315;28;20040;-71
2022/10/23 03:00:03;;;;;;;39.30;26.15;;;;;;;10.03;100.00;100504.53;5049126;28;20115;-73
2022/10/23 03:02:37;;;;;;;41.83;26.17;;;;;;;10.01;100.00;100460.53;5050070;28;20024;-73
2022/10/23 03:05:06;;;;;;;41.33;25.58;;;;;;;10.50;100.00;100511.34;5050307;28;20040;-71
2022/10/23 03:07:32;;;;;;;35.50;25.27;;;;;;;10.36;100.00;100526.81;5050027;28;20029;-72
2022/10/23 03:09:58;;;;;;;35.53;24.75;;;;;;;10.21;100.00;100509.31;5049029;28;20465;-73
2022/10/23 03:12:23;;;;;;;34.90;24.13;;;;;;;10.05;100.00;100465.53;5041656;28;20052;-73
2022/10/23 03:14:48;;;;;;;35.83;24.45;;;;;;;9.81;100.00;100455.81;5029899;28;20408;-73
2022/10/23 03:17:14;;;;;;;34.35;23.77;;;;;;;10.10;100.00;100499.34;5028981;28;20061;-73
2022/10/23 03:19:39;;;;;;;36.38;23.80;;;;;;;10.35;100.00;100525.16;5041181;28;20037;-73
2022/10/23 03:22:05;;;;;;;34.78;24.63;;;;;;;9.69;100.00;100445.84;5030073;28;20032;-73
2022/10/23 03:24:30;;;;;;;36.75;25.13;;;;;;;9.93;100.00;100462.38;5030201;28;20025;-72
2022/10/23 03:26:55;;;;;;;39.17;25.80;;;;;;;9.93;100.00;100472.53;5033733;28;20075;-72
2022/10/23 03:29:21;;;;;;;43.35;26.23;;;;;;;10.30;100.00;100506.63;5033752;28;20025;-76
2022/10/23 03:31:46;;;;;;;40.50;25.55;;;;;;;10.01;100.00;100471.53;5033534;28;20060;-71
2022/10/23 03:34:13;;;;;;;42.58;27.20;;;;;;;10.10;100.00;100518.84;5033474;28;20065;-71
2022/10/23 03:36:39;;;;;;;45.35;27.60;;;;;;;9.78;100.00;100491.41;5033491;28;20055;-72
2022/10/23 03:39:04;;;;;;;42.25;27.20;;;;;;;10.17;100.00;100525.47;5033839;28;20029;-72
2022/10/23 03:41:30;;;;;;;39.90;27.30;;;;;;;9.78;100.00;100526.97;5033624;28;20638;-72
2022/10/23 03:43:56;;;;;;;45.47;27.55;;;;;;;9.89;100.00;100503.91;5033327;28;20504;-72
2022/10/23 03:46:22;;;;;;;39.78;26.77;;;;;;;9.43;100.00;100460.66;5033447;28;20037;-72
2022/10/23 03:48:47;;;;;;;41.42;27.20;;;;;;;9.46;100.00;100441.19;5033937;28;20425;-72
2022/10/23 03:51:13;;;;;;;44.35;26.48;;;;;;;10.12;100.00;100512.84;5033344;28;20033;-72
2022/10/23 03:53:38;;;;;;;40.55;26.50;;;;;;;9.90;100.00;100525.94;5031911;28;20036;-73
2022/10/23 03:56:04;;;;;;;35.55;25.33;;;;;;;9.48;100.00;100456.38;5032285;28;20167;-72
2022/10/23 03:58:30;;;;;;;34.83;24.35;;;;;;;9.78;100.00;100488.88;5033532;28;20108;-73
2022/10/23 04:00:56;;;;;;;38.67;24.52;;;;;;;10.39;100.00;100542.88;5033308;28;20499;-71
2022/10/23 04:03:21;;;;;;;36.33;22.92;;;;;;;9.96;100.00;100486.03;5032995;28;20022;-72
2022/10/23 04:05:47;;;;;;;42.15;22.80;;;;;;;10.31;100.00;100516.75;5048627;28;20095;-72
2022/10/23 04:08:12;;;;;;;37.75;24.88;;;;;;;10.21;100.00;100522.03;5031542;28;20044;-70
2022/10/23 04:10:38;;;;;;;39.22;24.55;;;;;;;9.65;100.00;100456.09;5033229;28;20040;-74
2022/10/23 04:13:03;;;;;;;38.75;24.60;;;;;;;9.79;100.00;100434.69;5033483;28;20029;-74
2022/10/23 04:15:29;;;;;;;36.38;24.90;;;;;;;9.59;100.00;100474.78;5031165;28;20075;-70
2022/10/23 04:17:54;;;;;;;43.03;25.95;;;;;;;9.12;100.00;100406.19;5033010;28;20103;-70
2022/10/23 04:20:19;;;;;;;34.65;25.27;;;;;;;9.47;100.00;100455.53;5038685;28;20028;-70
2022/10/23 04:22:45;;;;;;;35.28;24.85;;;;;;;9.64;100.00;100493.34;5037365;28;20033;-71
2022/10/23 04:25:11;;;;;;;36.13;24.80;;;;;;;9.26;100.00;100467.72;5034340;28;20040;-70
2022/10/23 04:27:36;;;;;;;35.35;23.67;;;;;;;9.80;100.00;100548.09;5031703;28;20091;-72
2022/10/23 04:30:03;;;;;;;35.03;23.67;;;;;;;9.97;100.00;100558.81;5042965;28;20211;-72
2022/10/23 04:32:28;;;;;;;35.20;23.52;;;;;;;9.59;100.00;100538.25;5048480;28;20488;-73
2022/10/23 04:34:54;;;;;;;36.78;24.00;;;;;;;9.42;100.00;100456.47;5042235;28;20043;-73
2022/10/23 04:37:19;;;;;;;33.67;24.10;;;;;;;9.42;100.00;100518.22;5038467;28;20029;-72
2022/10/23 04:39:45;;;;;;;35.53;24.73;;;;;;;9.60;100.00;100540.78;5030962;28;20026;-72
2022/10/23 04:42:10;;;;;;;34.53;24.27;;;;;;;9.39;100.00;100494.56;5032580;28;20416;-77
2022/10/23 04:44:36;;;;;;;38.05;23.58;;;;;;;9.46;100.00;100470.78;5040905;28;20060;-72
2022/10/23 04:47:01;;;;;;;34.55;23.25;;;;;;;9.48;100.00;100538.44;5031414;28;20036;-72
2022/10/23 04:49:26;;;;;;;36.53;22.52;;;;;;;9.60;100.00;100517.09;5034709;28;20090;-72
2022/10/23 04:51:52;;;;;;;38.15;23.42;;;;;;;9.67;100.00;100517.81;5041185;28;20095;-71
2022/10/23 04:54:17;;;;;;;30.13;21.98;;;;;;;9.10;100.00;100421.44;5032522;28;20120;-72
2022/10/23 04:56:42;;;;;;;40.10;22.42;;;;;;;9.43;100.00;100506.34;5032778;28;20095;-71
2022/10/23 04:59:08;;;;;;;36.35;22.15;;;;;;;9.21;100.00;100474.56;5038461;28;20034;-72
2022/10/23 05:01:33;;;;;;;37.97;25.08;;;;;;;9.27;100.00;100543.78;5050522;28;20072;-72
2022/10/23 05:03:59;;;;;;;38.33;26.58;;;;;;;9.56;100.00;100540.84;5038666;28;20063;-71
2022/10/23 05:06:24;;;;;;;38.38;28.73;;;;;;;9.66;100.00;100519.53;5048287;28;20055;-73
2022/10/23 05:08:50;;;;;;;43.67;31.08;;;;;;;9.47;100.00;100485.13;5046520;28;20059;-71
2022/10/23 05:11:15;;;;;;;56.75;34.63;;;;;;;9.31;100.00;100498.94;5048845;28;20493;-71
2022/10/23 05:13:40;;;;;;;45.75;29.35;;;;;;;9.46;100.00;100508.84;5051200;28;20036;-71
2022/10/23 05:16:06;;;;;;;42.63;25.73;;;;;;;9.47;100.00;100546.03;5051654;28;20036;-71
2022/10/23 05:18:36;;;;;;;35.38;24.52;;;;;;;9.43;100.00;100519.03;5051603;28;20033;-72
2022/10/23 05:21:15;;;;;;;42.47;25.05;;;;;;;9.25;100.00;100525.22;5051637;28;20035;-71
2022/10/23 05:23:43;;;;;;;40.25;26.77;;;;;;;9.35;100.00;100465.00;5051864;28;20033;-71
2022/10/23 05:26:08;;;;;;;40.88;27.80;;;;;;;10.94;100.00;100579.94;5051727;28;20033;-71
2022/10/23 05:28:34;;;;;;;43.17;28.33;;;;;;;10.92;100.00;100553.69;5050439;28;20029;-72
2022/10/23 05:31:02;;;;;;;42.17;26.58;;;;;;;11.07;100.00;100592.41;5051459;28;20135;-73
2022/10/23 05:33:28;;;;;;;36.95;25.92;;;;;;;11.56;100.00;100541.28;5044378;28;20120;-69
2022/10/23 05:35:54;;;;;;;34.63;24.42;;;;;;;11.40;100.00;100588.31;5045567;28;20104;-73
2022/10/23 05:38:20;;;;;;;42.15;25.70;;;;;;;12.58;100.00;100605.88;5047062;28;20060;-72
2022/10/23 05:40:46;;;;;;;33.97;24.40;;;;;;;12.21;100.00;100598.34;5051414;28;20029;-73
2022/10/23 05:43:12;;;;;;;39.28;22.85;;;;;;;10.71;100.00;100493.09;5049569;28;20499;-73
2022/10/23 05:45:37;;;;;;;38.05;23.25;;;;;;;10.99;100.00;100565.44;5042662;28;20078;-73
2022/10/23 05:48:03;;;;;;;37.50;23.17;;;;;;;10.72;100.00;100558.34;5049453;28;20397;-72
2022/10/23 05:50:28;;;;;;;32.63;22.75;;;;;;;10.85;100.00;100595.41;5051094;28;20032;-72
2022/10/23 05:52:53;;;;;;;31.73;23.77;;;;;;;12.56;100.00;100531.13;5051470;28;20033;-72
2022/10/23 05:55:19;;;;;;;31.70;24.42;;;;;;;11.60;100.00;100576.00;5051243;28;20031;-72
2022/10/23 05:57:44;;;;;;;38.83;26.05;;;;;;;13.90;100.00;100607.16;5051581;28;20045;-73
2022/10/23 06:00:10;;;;;;;37.90;25.40;;;;;;;12.28;100.00;100614.34;5050179;28;20490;-73
2022/10/23 06:02:36;;;;;;;35.33;23.17;;;;;;;12.95;100.00;100565.75;5050797;28;20040;-73
2022/10/23 06:05:01;;;;;;;35.35;23.48;;;;;;;13.34;100.00;100510.16;5032393;28;20037;-72
2022/10/23 06:07:28;;;;;;;34.60;22.95;;;;;;;14.07;100.00;100593.84;5040133;28;20032;-72
2022/10/23 06:09:54;;;;;;;38.85;24.20;;;;;;;13.57;100.00;100569.88;5060869;28;20043;-71
2022/10/23 06:12:20;;;;;;;31.60;21.63;;;;;;;13.59;100.00;100551.94;5058128;28;20040;-73
2022/10/23 06:14:46;;;;;;;31.73;21.42;;;;;;;12.52;100.00;100578.84;5055408;28;20589;-72
2022/10/23 06:17:11;;;;;;;32.47;21.50;;;;;;;12.69;100.00;100599.66;5059814;28;20043;-72
2022/10/23 06:19:42;;;;;;;29.23;21.17;;;;;;;12.53;100.00;100597.53;5062041;28;20154;-73
2022/10/23 06:22:07;;;;;;;33.35;20.88;;;;;;;12.47;100.00;100560.28;5059482;28;20028;-74
2022/10/23 06:24:33;;;;;;;32.85;21.40;;;;;;;12.28;100.00;100561.59;5058625;28;20041;-74
2022/10/23 06:26:58;;;;;;;28.90;21.45;;;;;;;12.57;100.00;100541.31;5058544;28;20059;-74
2022/10/23 06:29:24;;;;;;;29.38;22.17;;;;;;;12.74;100.00;100592.69;5057213;28;20029;-72
2022/10/23 06:31:49;;;;;;;30.13;21.50;;;;;;;12.53;100.00;100532.06;5059363;28;20029;-70
2022/10/23 06:34:15;;;;;;;36.28;21.92;;;;;;;13.53;100.00;100608.31;5057397;28;20102;-72
2022/10/23 06:36:40;;;;;;;29.27;21.52;;;;;;;13.54;100.00;100544.44;5056574;28;20059;-74
2022/10/23 06:39:07;;;;;;;33.70;23.00;;;;;;;13.68;100.00;100529.53;5058668;28;20064;-72
2022/10/23 06:41:32;;;;;;;32.60;21.42;;;;;;;13.93;100.00;100555.94;5058414;28;20077;-73
2022/10/23 06:43:58;;;;;;;34.55;22.08;;;;;;;13.13;100.00;100447.00;5058433;28;20052;-73
2022/10/23 06:46:25;;;;;;;31.27;21.23;;;;;;;13.66;100.00;100602.00;5059837;28;20056;-73
2022/10/23 06:48:51;;;;;;;36.03;21.58;;;;;;;13.58;100.00;100615.00;5056611;28;20499;-71
2022/10/23 06:51:16;;;;;;;29.90;21.60;;;;;;;13.90;100.00;100596.94;5057629;28;20029;-71
2022/10/23 06:53:43;;;;;;;30.35;21.80;;;;;;;14.35;100.00;100611.72;5065652;28;20113;-76
2022/10/23 06:56:09;;;;;;;33.83;22.10;;;;;;;14.17;100.00;100617.41;5059837;28;20032;-72
2022/10/23 06:58:36;;;;;;;29.27;21.52;;;;;;;14.34;100.00;100598.09;5058396;28;20419;-72
2022/10/23 07:01:04;;;;;;;40.53;21.15;;;;;;;14.76;100.00;100585.53;5065020;28;20036;-76
2022/10/23 07:03:30;;;;;;;30.65;20.95;;;;;;;14.93;100.00;100592.63;5066328;28;20039;-75
2022/10/23 07:05:55;;;;;;;29.35;20.83;;;;;;;15.23;100.00;100584.66;5062920;28;20021;-75
2022/10/23 07:08:21;;;;;;;28.38;20.10;;;;;;;15.17;100.00;100623.31;5063648;28;20063;-74
2022/10/23 07:10:47;;;;;;;29.13;20.13;;;;;;;15.43;100.00;100582.22;5067823;28;20043;-76
2022/10/23 07:13:13;;;;;;;25.55;18.55;;;;;;;14.74;100.00;100582.19;5066747;28;20048;-77
2022/10/23 07:15:39;;;;;;;28.02;20.15;;;;;;;15.66;100.00;100627.50;5064056;28;20064;-75
2022/10/23 07:18:05;;;;;;;26.13;18.65;;;;;;;15.41;100.00;100565.22;5060162;28;20039;-74
2022/10/23 07:20:31;;;;;;;25.02;17.92;;;;;;;15.58;100.00;100584.22;5066901;28;20032;-74
2022/10/23 07:22:56;;;;;;;25.85;17.95;;;;;;;15.50;100.00;100511.91;5061766;28;20106;-75
2022/10/23 07:25:23;;;;;;;28.67;18.27;;;;;;;15.65;100.00;100637.81;5064896;28;20029;-76
2022/10/23 07:27:49;;;;;;;24.13;19.00;;;;;;;15.36;100.00;100628.59;5063320;28;20035;-76
2022/10/23 07:30:15;;;;;;;25.98;18.63;;;;;;;15.43;100.00;100628.34;5067336;28;20024;-76
2022/10/23 07:32:42;;;;;;;28.58;18.35;;;;;;;16.47;100.00;100618.22;5060909;28;20107;-77
2022/10/23 07:35:09;;;;;;;28.92;18.67;;;;;;;15.78;100.00;100632.16;5058747;28;20036;-76
2022/10/23 07:37:34;;;;;;;24.73;18.88;;;;;;;15.78;100.00;100546.69;5060754;28;20031;-77
2022/10/23 07:39:59;;;;;;;26.30;18.92;;;;;;;16.65;100.00;100629.47;5064088;28;20040;-77
2022/10/23 07:42:25;;;;;;;24.00;18.75;;;;;;;17.10;100.00;100617.19;5059663;28;20036;-75
2022/10/23 07:44:50;;;;;;;30.25;18.67;;;;;;;16.38;100.00;100590.38;5063317;28;20024;-76
2022/10/23 07:47:16;;;;;;;24.70;17.27;;;;;;;17.21;100.00;100633.78;5065338;28;20037;-75
2022/10/23 07:49:41;;;;;;;29.92;18.30;;;;;;;16.64;100.00;100574.69;5062710;28;20037;-72
2022/10/23 07:52:07;;;;;;;27.95;17.45;;;;;;;17.21;100.00;100610.66;5056922;28;20046;-72
2022/10/23 07:54:33;;;;;;;29.95;18.52;;;;;;;17.10;100.00;100576.06;5059948;28;20029;-72
2022/10/23 07:56:59;;;;;;;26.05;16.63;;;;;;;17.30;100.00;100617.13;5061426;28;20032;-74
2022/10/23 07:59:25;;;;;;;21.38;15.55;;;;;;;17.62;100.00;100577.13;5061854;28;20061;-74
2022/10/23 08:01:51;;;;;;;27.02;16.15;;;;;;;17.85;100.00;100569.13;5063731;28;20475;-75
2022/10/23 08:04:18;;;;;;;26.00;16.02;;;;;;;17.93;100.00;100585.03;5058469;28;20039;-77
2022/10/23 08:06:43;;;;;;;21.70;15.07;;;;;;;18.61;100.00;100613.41;5051696;28;20498;-71
2022/10/23 08:09:09;;;;;;;21.05;14.35;;;;;;;18.47;100.00;100548.88;5053739;28;20033;-75
2022/10/23 08:11:34;;;;;;;19.17;13.05;;;;;;;19.74;100.00;100615.06;5052692;28;20029;-73
2022/10/23 08:14:04;;;;;;;19.27;11.13;;;;;;;20.05;99.11;100608.16;5050984;28;20415;-74
2022/10/23 08:16:34;;;;;;;17.50;10.38;;;;;;;20.24;94.77;100607.09;5033989;28;20407;-75
2022/10/23 08:19:00;;;;;;;18.20;11.10;;;;;;;19.80;95.83;100557.09;5033084;28;20083;-75
2022/10/23 08:21:26;;;;;;;15.50;9.63;;;;;;;20.23;92.78;100532.25;5031722;28;20057;-74
2022/10/23 08:23:53;;;;;;;17.13;7.68;;;;;;;20.50;90.83;100557.28;5031157;28;20025;-74
2022/10/23 08:26:19;;;;;;;20.50;9.38;;;;;;;20.47;86.46;100510.13;5031950;28;20029;-75
2022/10/23 08:28:44;;;;;;;11.27;7.90;;;;;;;20.81;87.29;100582.13;5032957;28;20036;-75
2022/10/23 08:31:12;;;;;;;9.88;5.57;;;;;;;21.27;83.74;100583.56;5031844;28;20026;-75
2022/10/23 08:33:38;;;;;;;13.35;6.32;;;;;;;21.06;83.58;100561.63;5032059;28;20034;-74
2022/10/23 08:36:04;;;;;;;8.98;5.50;;;;;;;21.59;81.76;100615.19;5032697;28;20112;-75
2022/10/23 08:38:30;;;;;;;7.93;5.00;;;;;;;21.83;76.99;100576.63;5033538;28;20037;-75
2022/10/23 08:40:55;;;;;;;10.77;5.72;;;;;;;22.16;77.61;100575.25;5032149;28;20037;-74
2022/10/23 08:43:33;;;;;;;10.30;5.70;;;;;;;22.03;78.46;100600.28;5033245;28;20061;-74
2022/10/23 08:46:13;;;;;;;8.13;5.93;;;;;;;22.06;77.03;100552.63;5032725;28;20079;-74
2022/10/23 08:48:50;;;;;;;14.90;4.88;;;;;;;22.25;72.90;100569.44;5031702;28;20033;-74
2022/10/23 08:51:24;;;;;;;21.48;5.38;;;;;;;22.66;72.06;100613.34;5033122;28;20511;-75
2022/10/23 08:53:52;;;;;;;8.00;4.90;;;;;;;22.56;71.33;100622.63;5032238;28;20033;-73
2022/10/23 08:56:27;;;;;;;7.00;3.90;;;;;;;22.55;70.84;100613.22;5033401;28;20040;-75
2022/10/23 08:59:00;;;;;;;7.60;4.80;;;;;;;22.77;69.68;100618.63;5033065;28;20060;-76
2022/10/23 09:01:45;;;;;;;8.45;6.88;;;;;;;22.62;68.59;100570.41;5033562;28;20060;-76
2022/10/23 09:04:13;;;;;;;9.68;3.85;;;;;;;22.74;68.54;100561.78;5033548;28;20025;-76
2022/10/23 09:06:49;;;;;;;9.90;4.38;;;;;;;22.80;66.81;100581.31;5033361;28;20029;-76
2022/10/23 09:10:09;;;;;;;8.57;4.00;;;;;;;23.22;66.19;100599.06;5033147;28;20079;-76
2022/10/23 09:12:35;;;;;;;10.13;4.13;;;;;;;22.93;64.64;100550.97;4936031;29;20035;-74
2022/10/23 09:15:28;;;;;;;10.23;3.70;;;;;;;23.34;63.76;100620.75;5024043;28;20034;-73
2022/10/23 09:18:00;;;;;;;9.05;3.88;;;;;;;23.11;64.31;100573.88;5031246;28;20045;-73
2022/10/23 09:20:32;;;;;;;11.50;3.83;;;;;;;22.81;64.50;100528.47;5032263;28;20510;-74
2022/10/23 09:23:02;;;;;;;14.27;3.88;;;;;;;23.28;63.37;100614.19;5030429;28;20084;-73
2022/10/23 09:25:32;;;;;;;10.63;3.42;;;;;;;23.44;60.71;100585.41;5030973;28;20404;-73
2022/10/23 09:28:00;;;;;;;10.85;3.20;;;;;;;23.49;61.01;100628.31;5032219;28;20057;-75
2022/10/23 09:30:25;;;;;;;8.45;3.25;;;;;;;23.50;60.49;100616.97;5031270;28;20044;-74
2022/10/23 09:32:51;;;;;;;9.77;3.42;;;;;;;23.48;60.06;100574.72;5031022;28;20030;-74
2022/10/23 09:35:25;;;;;;;6.68;3.00;;;;;;;23.23;60.25;100575.56;5031976;28;20407;-74
2022/10/23 09:37:53;;;;;;;7.13;3.13;;;;;;;23.80;58.38;100622.56;5030524;28;20060;-74
2022/10/23 09:40:39;;;;;;;8.02;3.30;;;;;;;23.66;58.74;100578.59;5031828;28;20052;-74
2022/10/23 09:43:16;;;;;;;7.47;3.20;;;;;;;23.71;59.70;100609.44;5030229;28;20061;-74
2022/10/23 09:45:42;;;;;;;5.63;2.83;;;;;;;23.60;58.48;100573.81;5032109;28;20021;-73
2022/10/23 09:48:13;;;;;;;8.93;3.30;;;;;;;23.88;58.60;100615.06;5030682;28;20045;-73
2022/10/23 09:51:18;;;;;;;12.50;2.80;;;;;;;23.74;56.64;100565.03;5030184;28;20470;-73
2022/10/23 09:53:52;;;;;;;7.07;2.72;;;;;;;23.68;56.52;100584.50;5030629;28;20029;-72
2022/10/23 09:56:33;;;;;;;6.22;2.80;;;;;;;24.02;56.12;100614.03;5030534;28;20021;-73
2022/10/23 09:59:21;;;;;;;10.73;3.03;;;;;;;23.83;56.17;100565.19;5031429;28;20087;-73
2022/10/23 10:01:48;;;;;;;8.65;2.50;;;;;;;24.45;55.82;100603.91;5030203;28;20446;-74
2022/10/23 10:04:13;;;;;;;8.55;2.25;;;;;;;24.30;54.35;100592.06;5031556;28;20030;-74
2022/10/23 10:06:39;;;;;;;4.85;2.40;;;;;;;24.49;53.72;100582.75;5031267;28;20032;-74
2022/10/23 10:09:10;;;;;;;5.03;2.45;;;;;;;24.32;52.94;100554.63;5031408;28;20030;-72
2022/10/23 10:11:47;;;;;;;7.60;2.15;;;;;;;24.28;53.24;100591.34;5030316;28;20053;-73
2022/10/23 10:14:33;;;;;;;5.60;2.40;;;;;;;24.81;51.69;100611.56;5030111;28;20064;-73
2022/10/23 10:17:10;;;;;;;5.50;2.13;;;;;;;24.65;51.37;100598.03;5029930;28;20033;-73
2022/10/23 10:19:38;;;;;;;5.38;2.10;;;;;;;24.73;50.70;100598.31;5031287;28;20503;-74
2022/10/23 10:22:35;;;;;;;6.65;2.20;;;;;;;25.22;50.95;100584.88;5031101;28;20041;-73
2022/10/23 10:25:09;;;;;;;4.35;1.85;;;;;;;24.93;49.77;100588.03;5031081;28;20048;-74
2022/10/23 10:28:02;;;;;;;5.50;2.67;;;;;;;25.18;49.33;100584.31;5031249;28;20025;-74
2022/10/23 10:30:40;;;;;;;9.00;2.20;;;;;;;24.84;48.68;100577.47;5029645;28;20079;-74
2022/10/23 10:33:16;;;;;;;1.92;1.50;;;;;;;24.42;47.78;100528.75;5030068;28;20135;-74
2022/10/23 10:35:50;;;;;;;6.40;1.70;;;;;;;24.82;47.27;100581.97;5030473;28;20120;-74
2022/10/23 10:38:25;;;;;;;7.68;2.72;;;;;;;24.90;46.76;100583.03;5029228;28;20048;-73
2022/10/23 10:41:15;;;;;;;8.80;2.17;;;;;;;24.43;47.15;100532.97;5030724;28;20045;-72
2022/10/23 10:43:56;;;;;;;5.33;1.57;;;;;;;25.23;46.71;100584.78;5030252;28;20053;-73
2022/10/23 10:46:45;;;;;;;7.55;1.83;;;;;;;24.59;47.30;100531.69;5029761;28;20041;-73
2022/10/23 10:49:19;;;;;;;8.40;1.83;;;;;;;24.63;46.52;100579.09;5030560;28;20033;-73
2022/10/23 10:52:02;;;;;;;4.63;1.45;;;;;;;25.12;47.03;100587.41;5030574;28;20057;-72
2022/10/23 10:54:46;;;;;;;6.30;1.80;;;;;;;25.12;47.49;100576.16;5029427;28;20038;-72
2022/10/23 10:57:42;;;;;;;7.45;1.70;;;;;;;25.35;46.89;100569.97;5029667;28;20515;-73
2022/10/23 11:00:20;;;;;;;5.10;1.60;;;;;;;25.24;46.35;100520.50;5030778;28;20029;-73
2022/10/23 11:02:48;;;;;;;9.80;1.60;;;;;;;25.02;45.95;100500.56;5030460;28;20511;-73
2022/10/23 11:05:29;;;;;;;8.07;1.50;;;;;;;24.90;46.78;100494.56;5030688;28;20551;-73
2022/10/23 11:08:10;;;;;;;4.45;1.50;;;;;;;25.12;45.45;100491.06;5029548;28;20119;-73
2022/10/23 11:10:39;;;;;;;3.33;1.60;;;;;;;25.25;45.17;100536.03;5031106;28;20033;-73
2022/10/23 11:13:05;;;;;;;5.60;2.22;;;;;;;25.18;46.21;100489.75;5030383;28;20037;-74
2022/10/23 11:15:38;;;;;;;4.20;1.27;;;;;;;25.20;45.99;100490.47;5029175;28;20376;-74
2022/10/23 11:18:12;;;;;;;3.28;1.30;;;;;;;25.06;45.68;100481.16;5030435;28;20048;-74
2022/10/23 11:20:46;;;;;;;3.90;1.75;;;;;;;25.35;46.63;100529.13;5030012;28;20022;-74
2022/10/23 11:23:31;;;;;;;3.13;1.35;;;;;;;25.31;46.85;100527.72;5030703;28;20025;-74